Time;durP1;ratioP1;P1;durP2;ratioP2;P2;SDS_P1;SDS_P2;PMS_P1;PMS_P2;Temp;Humidity;BMP_temperature;BMP_pressure;BME280_temperature;BME280_humidity;BME280_pressure;Samples;Min_cycle;Max_cycle;Signal;HPM_P1;HPM_P2
2022/09/19 00:00:50;;;;;;;0.10;0.10;;;;;;;11.48;61.11;97613.75;8414742;28;20235;-75
2022/09/19 00:04:53;;;;;;;0.10;0.10;;;;;;;11.38;61.55;97617.75;8415211;28;20440;-75
2022/09/19 00:08:58;;;;;;;0.10;0.10;;;;;;;11.37;62.56;97620.44;8415027;28;20238;-75
2022/09/19 00:13:01;;;;;;;0.10;0.10;;;;;;;11.54;61.75;97620.38;8414887;28;20470;-75
2022/09/19 00:17:07;;;;;;;0.10;0.10;;;;;;;11.42;62.00;97632.22;8414989;28;20239;-75
2022/09/19 00:21:10;;;;;;;0.10;0.10;;;;;;;11.18;63.05;97629.19;8414827;28;20278;-75
2022/09/19 00:25:14;;;;;;;0.00;0.00;;;;;;;11.08;62.77;97628.81;8414563;28;20223;-75
2022/09/19 00:29:18;;;;;;;0.10;0.10;;;;;;;11.16;62.70;97636.19;8414851;28;20234;-75
2022/09/19 00:33:21;;;;;;;0.10;0.10;;;;;;;11.15;63.20;97630.16;8414604;28;20575;-75
2022/09/19 00:37:24;;;;;;;0.10;0.10;;;;;;;11.17;63.22;97626.66;8414436;28;20246;-75
2022/09/19 00:41:29;;;;;;;0.10;0.10;;;;;;;11.08;63.62;97627.97;8414348;28;20235;-75
2022/09/19 00:45:32;;;;;;;0.00;0.00;;;;;;;11.05;63.64;97618.59;8413878;28;20238;-76
2022/09/19 00:49:38;;;;;;;0.10;0.10;;;;;;;11.13;63.81;97623.38;8413883;28;20238;-75
2022/09/19 00:53:42;;;;;;;0.10;0.10;;;;;;;11.19;63.49;97619.63;8413970;28;20226;-76
2022/09/19 00:57:57;;;;;;;0.10;0.10;;;;;;;11.23;63.56;97629.78;8413948;28;20235;-76
2022/09/19 01:02:02;;;;;;;0.10;0.10;;;;;;;11.07;63.20;97629.72;8413194;28;20226;-76
2022/09/19 01:06:13;;;;;;;0.10;0.10;;;;;;;11.02;64.09;97631.72;8413277;28;20242;-76
2022/09/19 01:10:36;;;;;;;0.10;0.10;;;;;;;11.12;63.09;97624.31;8413528;28;20239;-76
2022/09/19 01:15:04;;;;;;;0.10;0.10;;;;;;;10.74;64.85;97619.34;8413529;28;20404;-76
2022/09/19 01:19:21;;;;;;;0.00;0.00;;;;;;;10.99;64.04;97618.09;8413276;28;20238;-76
2022/09/19 01:23:48;;;;;;;0.10;0.10;;;;;;;10.91;64.05;97619.31;8413527;28;20234;-75
2022/09/19 01:28:08;;;;;;;0.10;0.10;;;;;;;10.86;64.61;97621.31;8412925;28;20245;-75
2022/09/19 01:32:14;;;;;;;0.10;0.10;;;;;;;11.02;64.68;97623.94;8415146;28;20401;-75
2022/09/19 01:36:18;;;;;;;0.10;0.10;;;;;;;10.95;64.78;97635.56;8420121;28;20376;-75
2022/09/19 01:40:21;;;;;;;0.10;0.10;;;;;;;10.91;65.61;97642.63;8419802;28;20526;-75
2022/09/19 01:44:27;;;;;;;0.10;0.10;;;;;;;10.99;64.93;97642.25;8419550;28;20241;-76
2022/09/19 01:48:36;;;;;;;0.10;0.10;;;;;;;10.96;65.07;97637.22;8419390;28;20542;-76
2022/09/19 01:52:49;;;;;;;0.10;0.10;;;;;;;10.99;65.23;97639.66;8419128;28;20277;-75
2022/09/19 01:56:57;;;;;;;0.10;0.10;;;;;;;10.91;65.48;97637.47;8418815;28;20230;-75
2022/09/19 02:01:05;;;;;;;0.10;0.10;;;;;;;11.02;65.37;97636.88;8418893;28;20245;-75
2022/09/19 02:05:11;;;;;;;0.10;0.10;;;;;;;10.68;65.86;97622.22;8418965;28;20518;-75
2022/09/19 02:09:21;;;;;;;0.10;0.10;;;;;;;10.63;66.56;97632.81;8419028;28;20234;-75
2022/09/19 02:13:26;;;;;;;0.10;0.10;;;;;;;10.90;65.86;97624.56;8418710;28;20425;-76
2022/09/19 02:17:33;;;;;;;0.10;0.10;;;;;;;10.80;65.64;97613.84;8418494;28;20235;-76
2022/09/19 02:21:39;;;;;;;0.10;0.10;;;;;;;10.77;65.55;97637.31;8418254;28;20542;-76
2022/09/19 02:25:42;;;;;;;0.10;0.10;;;;;;;10.79;66.38;97643.25;8418384;28;20230;-76
2022/09/19 02:29:48;;;;;;;0.10;0.10;;;;;;;10.84;66.01;97645.63;8418270;28;20234;-76
2022/09/19 02:33:53;;;;;;;0.10;0.10;;;;;;;10.96;65.96;97643.22;8417672;28;20234;-76
2022/09/19 02:38:01;;;;;;;0.10;0.10;;;;;;;10.89;65.97;97648.78;8417743;28;20396;-76
2022/09/19 02:42:08;;;;;;;0.10;0.10;;;;;;;10.94;65.99;97649.41;8417934;28;20235;-76
2022/09/19 02:46:14;;;;;;;0.10;0.10;;;;;;;10.82;66.63;97647.44;8416316;28;20337;-76
2022/09/19 02:50:23;;;;;;;0.10;0.10;;;;;;;10.94;66.48;97652.81;8417551;28;20227;-76
2022/09/19 02:54:30;;;;;;;0.10;0.10;;;;;;;10.91;66.38;97650.41;8417618;28;20239;-75
2022/09/19 02:58:38;;;;;;;0.10;0.10;;;;;;;10.83;67.05;97660.28;8417281;28;20494;-76
2022/09/19 03:02:44;;;;;;;0.10;0.10;;;;;;;10.94;66.58;97664.94;8417283;28;20231;-75
2022/09/19 03:06:53;;;;;;;0.10;0.10;;;;;;;11.04;66.24;97661.00;8416985;28;20235;-75
2022/09/19 03:10:58;;;;;;;0.10;0.10;;;;;;;10.99;66.30;97673.34;8416386;28;20235;-75
2022/09/19 03:15:02;;;;;;;0.10;0.10;;;;;;;11.07;66.70;97685.91;8416811;28;20419;-75
2022/09/19 03:19:05;;;;;;;0.10;0.10;;;;;;;10.78;67.63;97689.97;8416735;28;20599;-75
2022/09/19 03:23:09;;;;;;;0.10;0.10;;;;;;;10.97;66.86;97685.53;8416637;28;20406;-76
2022/09/19 03:27:12;;;;;;;0.10;0.10;;;;;;;11.11;66.78;97690.84;8416349;28;20235;-75
2022/09/19 03:31:16;;;;;;;0.10;0.10;;;;;;;11.03;67.20;97698.19;8415982;28;20253;-75
2022/09/19 03:35:21;;;;;;;0.10;0.10;;;;;;;11.11;67.42;97705.56;8415943;28;20294;-76
2022/09/19 03:39:25;;;;;;;0.10;0.10;;;;;;;11.10;67.96;97704.72;8415859;28;20231;-75
2022/09/19 03:43:29;;;;;;;0.10;0.10;;;;;;;11.16;67.46;97703.59;8415594;28;20254;-75
2022/09/19 03:47:32;;;;;;;0.10;0.10;;;;;;;11.05;67.17;97709.28;8415530;28;20284;-76
2022/09/19 03:51:35;;;;;;;0.10;0.10;;;;;;;11.23;67.24;97711.88;8415521;28;20448;-76
2022/09/19 03:55:40;;;;;;;0.10;0.10;;;;;;;11.07;67.57;97717.00;8415145;28;20234;-74
2022/09/19 03:59:43;;;;;;;0.10;0.10;;;;;;;11.08;67.63;97718.66;8415242;28;20231;-74
2022/09/19 04:03:46;;;;;;;0.10;0.10;;;;;;;11.23;66.96;97724.81;8415077;28;20416;-74
2022/09/19 04:07:48;;;;;;;0.07;0.07;;;;;;;11.19;66.99;97726.72;8414464;28;20280;-74
2022/09/19 04:11:55;;;;;;;0.10;0.10;;;;;;;11.03;67.96;97731.03;8414596;28;20242;-74
2022/09/19 04:15:59;;;;;;;0.10;0.10;;;;;;;11.18;67.40;97734.63;8414815;28;20226;-74
2022/09/19 04:20:02;;;;;;;0.10;0.10;;;;;;;10.90;68.39;97742.00;8414447;28;20591;-75
2022/09/19 04:24:06;;;;;;;0.10;0.10;;;;;;;11.08;67.73;97742.84;8414337;28;20238;-74
2022/09/19 04:28:11;;;;;;;0.10;0.10;;;;;;;11.19;67.31;97757.84;8414379;28;20288;-74
2022/09/19 04:32:15;;;;;;;0.10;0.10;;;;;;;11.22;67.24;97754.28;8414098;28;20238;-76
2022/09/19 04:36:18;;;;;;;0.10;0.10;;;;;;;11.02;67.86;97748.31;8413878;28;20231;-76
2022/09/19 04:40:22;;;;;;;0.10;0.10;;;;;;;10.99;68.50;97750.25;8414158;28;20521;-77
2022/09/19 04:44:29;;;;;;;0.10;0.10;;;;;;;10.94;68.98;97753.88;8414231;28;20238;-75
2022/09/19 04:48:32;;;;;;;0.10;0.10;;;;;;;11.12;67.99;97766.84;8413614;28;20242;-75
2022/09/19 04:52:37;;;;;;;0.10;0.10;;;;;;;10.99;69.01;97773.56;8413597;28;20230;-76
2022/09/19 04:56:43;;;;;;;0.10;0.10;;;;;;;11.15;68.54;97772.69;8413792;28;20408;-74
2022/09/19 05:00:53;;;;;;;0.10;0.10;;;;;;;11.17;68.60;97774.38;8413761;28;20234;-76
2022/09/19 05:04:56;;;;;;;0.10;0.10;;;;;;;11.22;68.53;97791.41;8413033;28;20637;-76
2022/09/19 05:08:58;;;;;;;0.10;0.10;;;;;;;11.19;68.55;97795.88;8413030;28;20235;-75
2022/09/19 05:13:01;;;;;;;0.10;0.10;;;;;;;11.24;68.45;97792.16;8413149;28;20245;-75
2022/09/19 05:17:05;;;;;;;0.10;0.10;;;;;;;11.15;69.03;97800.38;8413318;28;20238;-75
2022/09/19 05:21:11;;;;;;;0.10;0.10;;;;;;;11.18;68.82;97813.19;8413016;28;20242;-75
2022/09/19 05:25:15;;;;;;;0.10;0.10;;;;;;;11.34;68.47;97818.44;8413223;28;20227;-76
2022/09/19 05:29:18;;;;;;;0.10;0.10;;;;;;;11.25;68.89;97824.09;8413077;28;20253;-76
2022/09/19 05:33:25;;;;;;;0.10;0.10;;;;;;;11.20;69.45;97821.75;8412818;28;20238;-76
2022/09/19 05:37:28;;;;;;;0.10;0.10;;;;;;;11.35;68.81;97823.56;8413083;28;20230;-76
2022/09/19 05:41:31;;;;;;;0.10;0.10;;;;;;;11.42;68.05;97831.03;8412956;28;20244;-76
2022/09/19 05:45:34;;;;;;;0.10;0.10;;;;;;;11.27;68.81;97835.22;8412815;28;20541;-76
2022/09/19 05:49:39;;;;;;;0.10;0.10;;;;;;;11.13;69.08;97828.13;8413054;28;20234;-76
2022/09/19 05:53:54;;;;;;;0.10;0.10;;;;;;;11.20;69.70;97839.88;8412815;28;20234;-76
2022/09/19 05:57:58;;;;;;;0.10;0.10;;;;;;;11.28;68.86;97850.69;8412628;28;20238;-76
2022/09/19 06:02:01;;;;;;;0.10;0.10;;;;;;;11.43;68.62;97861.25;8412586;28;20239;-76
2022/09/19 06:06:11;;;;;;;0.10;0.10;;;;;;;11.37;68.59;97870.16;8412729;28;20267;-76
2022/09/19 06:10:14;;;;;;;0.10;0.10;;;;;;;11.38;69.16;97871.00;8412424;28;20234;-76
2022/09/19 06:14:18;;;;;;;0.00;0.00;;;;;;;11.42;68.87;97888.06;8412697;28;20485;-76
2022/09/19 06:18:21;;;;;;;0.10;0.10;;;;;;;11.53;68.54;97901.34;8414673;28;20226;-76
2022/09/19 06:22:27;;;;;;;0.10;0.10;;;;;;;11.71;68.39;97892.66;8418438;28;20235;-76
2022/09/19 06:26:29;;;;;;;0.00;0.00;;;;;;;11.93;67.50;97907.19;8418244;28;20227;-76
2022/09/19 06:30:33;;;;;;;0.10;0.10;;;;;;;11.98;67.78;97910.38;8418198;28;20238;-76
2022/09/19 06:34:36;;;;;;;0.07;0.07;;;;;;;11.90;67.80;97921.16;8418160;28;20466;-76
2022/09/19 06:39:00;;;;;;;0.10;0.10;;;;;;;12.19;67.07;97912.81;8417587;28;20297;-76
2022/09/19 06:43:05;;;;;;;0.10;0.10;;;;;;;11.99;67.46;97924.19;8417906;28;20239;-75
2022/09/19 06:47:08;;;;;;;0.10;0.10;;;;;;;12.19;67.48;97928.38;8417948;28;20226;-76
2022/09/19 06:51:13;;;;;;;0.10;0.10;;;;;;;12.23;66.75;97928.13;8417563;28;20238;-76
2022/09/19 06:55:17;;;;;;;0.10;0.10;;;;;;;12.17;67.50;97941.44;8417389;28;20238;-76
2022/09/19 06:59:21;;;;;;;0.10;0.10;;;;;;;11.95;68.10;97940.84;8417529;28;20249;-75
2022/09/19 07:03:24;;;;;;;0.10;0.10;;;;;;;12.06;67.78;97952.34;8417317;28;20242;-76
2022/09/19 07:07:27;;;;;;;0.00;0.00;;;;;;;12.10;67.46;97955.66;8417248;28;20237;-76
2022/09/19 07:11:31;;;;;;;0.00;0.00;;;;;;;12.21;68.32;97955.94;8416738;28;20237;-76
2022/09/19 07:15:36;;;;;;;0.10;0.10;;;;;;;12.17;67.63;97961.38;8416816;28;20320;-76
2022/09/19 07:19:39;;;;;;;0.10;0.10;;;;;;;12.32;67.15;97958.00;8416765;28;20434;-73
2022/09/19 07:23:42;;;;;;;0.03;0.03;;;;;;;12.52;66.29;97975.97;8416715;28;20525;-76
2022/09/19 07:27:46;;;;;;;0.10;0.10;;;;;;;12.62;66.32;97962.50;8416498;28;20517;-76
2022/09/19 07:31:49;;;;;;;0.00;0.00;;;;;;;12.64;66.35;97979.69;8415113;28;20231;-76
2022/09/19 07:35:54;;;;;;;0.00;0.00;;;;;;;12.49;66.26;97988.28;8416270;28;20234;-76
2022/09/19 07:40:01;;;;;;;0.10;0.10;;;;;;;12.50;66.41;97990.78;8416337;28;20254;-76
2022/09/19 07:44:13;;;;;;;0.10;0.10;;;;;;;12.66;65.74;98001.25;8416146;28;20411;-76
2022/09/19 07:48:16;;;;;;;0.10;0.10;;;;;;;12.65;65.27;98001.31;8415694;28;20234;-76
2022/09/19 07:52:19;;;;;;;0.10;0.10;;;;;;;13.26;64.41;98015.41;8415550;28;20239;-75
2022/09/19 07:56:22;;;;;;;0.00;0.00;;;;;;;13.13;64.75;98020.41;8415620;28;20257;-74
2022/09/19 08:00:27;;;;;;;0.00;0.00;;;;;;;13.57;64.35;98027.56;8415336;28;20235;-74
2022/09/19 08:04:30;;;;;;;0.00;0.00;;;;;;;13.57;63.88;98019.78;8415130;28;20234;-74
2022/09/19 08:08:35;;;;;;;0.10;0.10;;;;;;;14.22;62.41;98023.91;8414941;28;20529;-74
2022/09/19 08:12:38;;;;;;;0.10;0.10;;;;;;;14.24;61.25;98025.53;8415148;28;20249;-74
2022/09/19 08:16:43;;;;;;;0.00;0.00;;;;;;;14.93;60.25;98027.59;8414900;28;20231;-75
2022/09/19 08:20:46;;;;;;;0.00;0.00;;;;;;;15.31;58.18;98027.81;8414711;28;20230;-75
2022/09/19 08:24:48;;;;;;;0.00;0.00;;;;;;;15.68;62.21;98040.31;8414290;28;20246;-75
2022/09/19 08:28:51;;;;;;;0.00;0.00;;;;;;;15.58;58.33;98042.66;8414583;28;20276;-77
2022/09/19 08:32:56;;;;;;;0.00;0.00;;;;;;;15.91;56.93;98046.69;8414150;28;20243;-74
2022/09/19 08:37:00;;;;;;;0.00;0.00;;;;;;;16.05;57.14;98046.63;8414137;28;20234;-77
2022/09/19 08:41:13;;;;;;;0.00;0.00;;;;;;;15.39;56.85;98058.66;8413636;28;20238;-76
2022/09/19 08:45:24;;;;;;;0.00;0.00;;;;;;;15.33;57.59;98065.09;8414451;28;20250;-78
2022/09/19 08:49:29;;;;;;;0.00;0.00;;;;;;;15.08;58.11;98064.91;8414491;28;20505;-77
2022/09/19 08:53:34;;;;;;;0.00;0.00;;;;;;;14.73;59.74;98079.13;8414268;28;20254;-80
2022/09/19 08:57:39;;;;;;;0.00;0.00;;;;;;;14.53;60.65;98082.06;8414328;28;20222;-78
2022/09/19 09:01:44;;;;;;;0.00;0.00;;;;;;;14.66;59.33;98083.06;8414279;28;20241;-77
2022/09/19 09:06:05;;;;;;;0.00;0.00;;;;;;;14.79;58.98;98085.75;8414752;28;20231;-77
2022/09/19 09:10:19;;;;;;;0.00;0.00;;;;;;;15.07;58.83;98089.31;8414284;28;20246;-77
2022/09/19 09:14:26;;;;;;;0.00;0.00;;;;;;;15.58;58.72;98097.47;8414297;28;20238;-78
2022/09/19 09:18:44;;;;;;;0.00;0.00;;;;;;;16.24;56.27;98095.91;8414189;28;20310;-76
2022/09/19 09:22:51;;;;;;;0.00;0.00;;;;;;;16.46;54.71;98092.72;8413270;28;20302;-73
2022/09/19 09:26:55;;;;;;;0.00;0.00;;;;;;;16.43;55.17;98103.38;8413375;28;20305;-77
2022/09/19 09:31:07;;;;;;;0.00;0.00;;;;;;;15.97;55.82;98106.34;8413404;28;20245;-77
2022/09/19 09:35:13;;;;;;;0.00;0.00;;;;;;;16.29;54.77;98108.66;8413224;28;20231;-76
2022/09/19 09:39:21;;;;;;;0.00;0.00;;;;;;;15.98;55.18;98110.66;8413202;28;20242;-76
2022/09/19 09:43:25;;;;;;;0.00;0.00;;;;;;;16.91;53.79;98100.22;8413236;28;20538;-77
2022/09/19 09:47:39;;;;;;;0.00;0.00;;;;;;;17.11;51.77;98102.28;8413227;28;20283;-77
2022/09/19 09:51:53;;;;;;;0.00;0.00;;;;;;;16.37;53.56;98117.69;8413254;28;20234;-77
2022/09/19 09:56:16;;;;;;;0.00;0.00;;;;;;;16.36;54.60;98120.41;8419215;28;20235;-77
2022/09/19 10:04:44;;;;;;;0.00;0.00;;;;;;;16.27;54.18;98110.53;8419328;28;20525;-77
2022/09/19 10:08:56;;;;;;;0.00;0.00;;;;;;;16.13;55.10;98119.28;8419477;28;20227;-75
2022/09/19 10:13:07;;;;;;;0.00;0.00;;;;;;;18.14;51.13;98118.63;8419612;28;20544;-77
2022/09/19 10:17:09;;;;;;;0.00;0.00;;;;;;;17.16;52.83;98115.06;8419735;28;20269;-78
2022/09/19 10:21:13;;;;;;;0.00;0.00;;;;;;;17.55;52.11;98113.22;8419240;28;20532;-78
2022/09/19 10:25:16;;;;;;;0.00;0.00;;;;;;;17.55;52.33;98114.09;8419297;28;20284;-78
2022/09/19 10:29:23;;;;;;;0.00;0.00;;;;;;;17.58;51.38;98120.88;8419268;28;20280;-78
2022/09/19 10:33:28;;;;;;;0.00;0.00;;;;;;;16.98;52.76;98119.78;8419100;28;20243;-80
2022/09/19 10:37:31;;;;;;;0.00;0.00;;;;;;;16.47;52.93;98125.75;8418946;28;20231;-77
2022/09/19 10:41:35;;;;;;;0.00;0.00;;;;;;;16.23;54.07;98138.66;8418581;28;20237;-76
2022/09/19 10:45:46;;;;;;;0.00;0.00;;;;;;;16.38;54.62;98136.81;8417817;28;20280;-77
2022/09/19 10:49:51;;;;;;;0.00;0.00;;;;;;;16.54;54.13;98124.41;8417984;28;20237;-79
2022/09/19 10:53:56;;;;;;;0.00;0.00;;;;;;;16.87;53.59;98130.97;8417852;28;20242;-79
2022/09/19 10:58:03;;;;;;;0.00;0.00;;;;;;;17.18;53.35;98134.13;8417629;28;20241;-79
2022/09/19 11:02:19;;;;;;;0.00;0.00;;;;;;;17.28;53.15;98142.16;8417360;28;20416;-79
2022/09/19 11:06:22;;;;;;;0.00;0.00;;;;;;;17.25;52.95;98135.38;8416282;28;20247;-79
2022/09/19 11:10:38;;;;;;;0.20;0.20;;;;;;;17.11;54.02;98138.09;8417976;28;20442;-80
2022/09/19 11:14:42;;;;;;;0.00;0.00;;;;;;;16.88;53.93;98143.09;8417689;28;20231;-80
2022/09/19 11:18:57;;;;;;;0.00;0.00;;;;;;;17.28;54.16;98140.38;8417810;28;20235;-77
2022/09/19 11:23:38;;;;;;;0.00;0.00;;;;;;;17.08;53.62;98147.00;8416781;28;20230;-78
2022/09/19 11:27:52;;;;;;;0.00;0.00;;;;;;;16.79;52.72;98141.94;8392934;28;20545;-79
2022/09/19 11:32:06;;;;;;;0.00;0.00;;;;;;;16.68;53.02;98146.16;8416192;28;20292;-77
2022/09/19 11:36:36;;;;;;;0.00;0.00;;;;;;;16.66;52.12;98138.47;8416370;28;20254;-79
2022/09/19 11:40:47;;;;;;;0.00;0.00;;;;;;;16.45;51.53;98139.84;8416502;28;20446;-79
2022/09/19 11:44:57;;;;;;;0.00;0.00;;;;;;;16.35;52.32;98150.91;8415638;28;20426;-79
2022/09/19 11:49:16;;;;;;;0.00;0.00;;;;;;;16.23;52.61;98142.09;8415925;28;20227;-79
2022/09/19 11:53:31;;;;;;;0.00;0.00;;;;;;;16.24;52.08;98135.09;8415675;28;20293;-79
2022/09/19 11:57:39;;;;;;;0.00;0.00;;;;;;;16.64;52.29;98121.16;8415645;28;20286;-79
2022/09/19 12:01:53;;;;;;;0.00;0.00;;;;;;;17.32;50.56;98114.84;8415576;28;20242;-80
2022/09/19 12:06:16;;;;;;;0.00;0.00;;;;;;;16.66;50.39;98114.06;8414960;28;20298;-80
2022/09/19 12:10:22;;;;;;;0.00;0.00;;;;;;;17.12;50.17;98108.38;8415540;28;20441;-79
2022/09/19 12:14:28;;;;;;;0.00;0.00;;;;;;;18.24;48.50;98110.94;8414999;28;20454;-79
2022/09/19 12:18:37;;;;;;;0.00;0.00;;;;;;;18.87;45.35;98101.00;8415574;28;20424;-79
2022/09/19 12:22:47;;;;;;;0.00;0.00;;;;;;;18.50;46.27;98098.50;8416477;28;20242;-78
2022/09/19 12:26:56;;;;;;;0.00;0.00;;;;;;;18.52;45.57;98083.50;8414432;28;20241;-78
2022/09/19 12:31:00;;;;;;;0.00;0.00;;;;;;;18.49;45.25;98085.53;8414346;28;20296;-78
2022/09/19 12:35:06;;;;;;;0.00;0.00;;;;;;;19.29;43.92;98087.31;8414249;28;20303;-78
2022/09/19 12:39:13;;;;;;;0.00;0.00;;;;;;;19.83;43.86;98089.16;8414368;28;20242;-78
2022/09/19 12:43:28;;;;;;;0.00;0.00;;;;;;;20.04;42.62;98086.59;8414183;28;20231;-78
2022/09/19 12:47:42;;;;;;;0.00;0.00;;;;;;;19.27;43.88;98081.34;8413920;28;20407;-79
2022/09/19 12:51:55;;;;;;;0.00;0.00;;;;;;;18.66;44.18;98077.22;8413089;28;20242;-79
2022/09/19 12:56:04;;;;;;;0.00;0.00;;;;;;;18.13;45.50;98077.63;8413754;28;20232;-80
2022/09/19 13:00:11;;;;;;;0.00;0.00;;;;;;;18.11;45.41;98078.72;8413771;28;21779;-78
2022/09/19 13:04:29;;;;;;;0.00;0.00;;;;;;;17.97;46.49;98077.94;8413714;28;20238;-78
2022/09/19 13:08:34;;;;;;;0.00;0.00;;;;;;;17.91;47.42;98077.53;8414039;28;20228;-81
2022/09/19 13:12:42;;;;;;;0.00;0.00;;;;;;;17.30;48.15;98083.53;8413619;28;20230;-79
2022/09/19 13:25:28;;;;;;;0.00;0.00;;;;;;;16.28;56.46;98117.44;8413473;28;20233;-77
2022/09/19 13:29:46;;;;;;;0.00;0.00;;;;;;;16.13;57.23;98111.44;8417894;28;20226;-76
2022/09/19 13:33:53;;;;;;;0.00;0.00;;;;;;;16.41;55.41;98120.91;8419784;28;20226;-78
2022/09/19 13:37:59;;;;;;;0.00;0.00;;;;;;;17.22;55.90;98119.06;8419948;28;20234;-78
2022/09/19 13:42:04;;;;;;;0.00;0.00;;;;;;;17.55;53.22;98110.59;8419953;28;20413;-78
2022/09/19 13:46:12;;;;;;;0.00;0.00;;;;;;;17.56;53.62;98113.13;8419483;28;20242;-78
2022/09/19 13:50:22;;;;;;;0.00;0.00;;;;;;;16.75;55.21;98116.94;8419827;28;20234;-79
2022/09/19 13:55:01;;;;;;;0.00;0.00;;;;;;;16.45;56.87;98130.25;8419218;28;20231;-79
2022/09/19 13:59:17;;;;;;;0.00;0.00;;;;;;;17.16;57.39;98118.53;8419318;28;20230;-79
2022/09/19 14:03:27;;;;;;;0.00;0.00;;;;;;;16.79;58.41;98121.00;8419356;28;20230;-78
2022/09/19 14:07:35;;;;;;;0.00;0.00;;;;;;;16.46;59.47;98133.69;8419052;28;20234;-78
2022/09/19 14:11:58;;;;;;;0.00;0.00;;;;;;;16.27;60.38;98128.84;8418427;28;20227;-79
2022/09/19 14:16:29;;;;;;;0.00;0.00;;;;;;;16.30;60.40;98126.03;8418494;28;20277;-78
2022/09/19 14:20:48;;;;;;;0.00;0.00;;;;;;;15.97;61.52;98135.09;8418368;28;20238;-78
2022/09/19 14:25:02;;;;;;;0.00;0.00;;;;;;;15.91;62.15;98131.09;8417349;28;20253;-78
2022/09/19 14:29:16;;;;;;;0.00;0.00;;;;;;;15.59;61.09;98139.16;8418345;28;20230;-79
2022/09/19 14:33:54;;;;;;;0.00;0.00;;;;;;;15.80;60.24;98139.63;8418197;28;20231;-78
2022/09/19 14:38:33;;;;;;;0.00;0.00;;;;;;;16.09;59.80;98141.28;8393057;28;20709;-78
2022/09/19 14:43:02;;;;;;;0.00;0.00;;;;;;;16.60;58.58;98136.22;8415242;28;20230;-79
2022/09/19 14:47:09;;;;;;;0.00;0.00;;;;;;;16.75;58.16;98135.22;8417460;28;20235;-78
2022/09/19 14:51:26;;;;;;;0.00;0.00;;;;;;;17.24;57.10;98127.63;8417825;28;20286;-78
2022/09/19 14:55:35;;;;;;;0.00;0.00;;;;;;;16.83;58.75;98134.75;8417572;28;20238;-79
2022/09/19 14:59:40;;;;;;;0.00;0.00;;;;;;;17.00;58.34;98126.59;8417430;28;20269;-79
2022/09/19 15:03:45;;;;;;;0.00;0.00;;;;;;;16.68;58.99;98125.25;8417181;28;20234;-79
2022/09/19 15:07:48;;;;;;;0.00;0.00;;;;;;;16.29;60.63;98143.47;8416766;28;20246;-76
2022/09/19 15:11:53;;;;;;;0.00;0.00;;;;;;;16.31;61.33;98154.66;8417448;28;20238;-78
2022/09/19 15:15:59;;;;;;;0.00;0.00;;;;;;;16.13;62.40;98161.09;8417150;28;20458;-79
2022/09/19 15:20:12;;;;;;;0.00;0.00;;;;;;;16.11;62.82;98157.72;8417111;28;20227;-79
2022/09/19 15:24:15;;;;;;;0.00;0.00;;;;;;;15.96;63.79;98151.72;8417245;28;20227;-81
2022/09/19 15:28:25;;;;;;;0.00;0.00;;;;;;;15.89;63.84;98148.63;8417157;28;20537;-73
2022/09/19 15:32:33;;;;;;;0.00;0.00;;;;;;;15.86;64.86;98142.75;8417307;28;20296;-79
2022/09/19 15:36:37;;;;;;;0.00;0.00;;;;;;;15.96;64.46;98139.47;8418530;28;20235;-81
2022/09/19 15:40:39;;;;;;;0.00;0.00;;;;;;;16.02;64.67;98135.63;8416358;28;20227;-80
2022/09/19 15:44:42;;;;;;;0.00;0.00;;;;;;;16.26;63.19;98135.84;8416262;28;20235;-80
2022/09/19 15:48:48;;;;;;;0.00;0.00;;;;;;;16.33;63.17;98131.88;8416007;28;20235;-80
2022/09/19 15:52:55;;;;;;;0.00;0.00;;;;;;;16.58;61.95;98115.44;8414934;28;20223;-80
2022/09/19 15:56:59;;;;;;;0.00;0.00;;;;;;;16.59;62.46;98124.94;8416422;28;20506;-80
2022/09/19 16:01:10;;;;;;;0.00;0.00;;;;;;;16.66;62.25;98111.44;8415647;28;20238;-79
2022/09/19 16:05:18;;;;;;;0.00;0.00;;;;;;;16.32;62.03;98116.31;8416741;28;20526;-79
2022/09/19 16:09:32;;;;;;;0.00;0.00;;;;;;;16.26;62.04;98114.94;8415425;28;20517;-79
2022/09/19 16:13:38;;;;;;;0.00;0.00;;;;;;;16.21;62.05;98120.44;8415315;28;20226;-79
2022/09/19 16:18:14;;;;;;;0.00;0.00;;;;;;;16.15;61.92;98117.41;8414762;28;20250;-77
2022/09/19 16:22:21;;;;;;;0.00;0.00;;;;;;;15.96;62.06;98112.53;8414533;28;20284;-78
2022/09/19 16:26:30;;;;;;;0.00;0.00;;;;;;;16.00;62.20;98111.38;8414762;28;20242;-77
2022/09/19 16:30:32;;;;;;;0.00;0.00;;;;;;;15.85;62.48;98110.59;8414453;28;20256;-78
2022/09/19 16:34:37;;;;;;;0.00;0.00;;;;;;;15.84;62.48;98116.75;8414253;28;20525;-78
2022/09/19 16:39:05;;;;;;;0.00;0.00;;;;;;;15.73;63.10;98113.97;8414363;28;20234;-78
2022/09/19 16:43:35;;;;;;;0.00;0.00;;;;;;;15.70;62.72;98122.81;8414133;28;20298;-80
2022/09/19 16:47:38;;;;;;;0.00;0.00;;;;;;;15.64;63.27;98118.81;8414310;28;20243;-73
2022/09/19 16:51:41;;;;;;;0.00;0.00;;;;;;;15.49;62.89;98113.72;8414491;28;20238;-75
2022/09/19 16:55:45;;;;;;;0.00;0.00;;;;;;;15.46;62.31;98117.38;8414181;28;20234;-80
2022/09/19 16:59:55;;;;;;;0.00;0.00;;;;;;;15.42;62.50;98121.94;8413386;28;20234;-77
2022/09/19 17:03:58;;;;;;;0.00;0.00;;;;;;;15.40;62.38;98120.31;8413365;28;20238;-77
2022/09/19 17:08:02;;;;;;;0.00;0.00;;;;;;;15.32;62.92;98125.19;8413863;28;20245;-72
2022/09/19 17:12:12;;;;;;;0.00;0.00;;;;;;;15.27;62.15;98135.06;8413569;28;20226;-76
2022/09/19 17:16:18;;;;;;;0.00;0.00;;;;;;;15.15;62.43;98129.66;8413449;28;20227;-76
2022/09/19 17:20:21;;;;;;;0.00;0.00;;;;;;;15.03;62.37;98126.00;8413779;28;20230;-76
2022/09/19 17:24:26;;;;;;;0.00;0.00;;;;;;;14.99;62.68;98145.38;8413795;28;20253;-77
2022/09/19 17:28:31;;;;;;;0.00;0.00;;;;;;;14.94;63.01;98149.19;8413236;28;20245;-76
2022/09/19 17:32:33;;;;;;;0.00;0.00;;;;;;;14.84;63.09;98144.50;8413410;28;20238;-76
2022/09/19 17:36:36;;;;;;;0.00;0.00;;;;;;;14.88;62.48;98141.75;8412550;28;20521;-77
2022/09/19 17:40:40;;;;;;;0.10;0.10;;;;;;;14.81;62.76;98149.94;8413395;28;20425;-75
2022/09/19 17:44:44;;;;;;;0.00;0.00;;;;;;;14.75;62.36;98149.44;8412157;28;20235;-75
2022/09/19 17:48:50;;;;;;;0.00;0.00;;;;;;;14.82;62.84;98148.16;8412452;28;20401;-73
2022/09/19 17:52:53;;;;;;;0.00;0.00;;;;;;;14.80;62.96;98152.63;8412988;28;20226;-74
2022/09/19 17:56:56;;;;;;;0.00;0.00;;;;;;;14.74;62.52;98153.00;8412855;28;20230;-74
2022/09/19 18:03:16;;;;;;;0.00;0.00;;;;;;;14.79;62.47;98164.81;8412916;28;20242;-75
2022/09/19 18:05:23;;;;;;;0.00;0.00;;;;;;;14.72;63.03;98181.75;8413010;28;20298;-75
2022/09/19 18:09:26;;;;;;;0.03;0.03;;;;;;;14.58;64.28;98187.75;8412581;28;20246;-72
2022/09/19 18:13:35;;;;;;;0.00;0.00;;;;;;;14.58;64.80;98205.13;8413716;28;20242;-78
2022/09/19 18:17:40;;;;;;;0.00;0.00;;;;;;;15.29;72.89;98240.16;8418784;28;20302;-75
2022/09/19 18:21:43;;;;;;;0.00;0.00;;;;;;;15.65;65.93;98244.97;8418625;28;20235;-74
2022/09/19 18:25:46;;;;;;;0.00;0.00;;;;;;;14.87;63.28;98253.03;8418801;28;20552;-74
2022/09/19 18:29:50;;;;;;;0.00;0.00;;;;;;;14.65;61.96;98246.41;8418261;28;20223;-74
2022/09/19 18:33:54;;;;;;;0.00;0.00;;;;;;;14.46;62.10;98249.16;8417992;28;20227;-74
2022/09/19 18:37:58;;;;;;;0.00;0.00;;;;;;;14.34;62.64;98247.25;8417937;28;20235;-74
2022/09/19 18:42:00;;;;;;;0.00;0.00;;;;;;;14.53;62.35;98231.44;8418228;28;20272;-74
2022/09/19 18:46:05;;;;;;;0.00;0.00;;;;;;;14.33;62.03;98227.31;8418091;28;20242;-74
2022/09/19 18:50:10;;;;;;;0.00;0.00;;;;;;;14.33;63.42;98242.13;8417906;28;20254;-74
2022/09/19 18:54:13;;;;;;;0.00;0.00;;;;;;;14.32;64.32;98243.03;8417543;28;20250;-74
2022/09/19 18:58:21;;;;;;;0.00;0.00;;;;;;;14.37;63.56;98246.25;8417418;28;20235;-74
2022/09/19 19:02:24;;;;;;;0.00;0.00;;;;;;;14.44;63.88;98247.59;8417613;28;20522;-74
2022/09/19 19:06:29;;;;;;;0.00;0.00;;;;;;;14.45;63.78;98246.69;8417341;28;20328;-75
2022/09/19 19:10:33;;;;;;;0.00;0.00;;;;;;;14.45;63.77;98257.09;8417150;28;20230;-74
2022/09/19 19:14:36;;;;;;;0.00;0.00;;;;;;;14.38;63.91;98246.16;8417256;28;20234;-75
2022/09/19 19:18:39;;;;;;;0.00;0.00;;;;;;;14.38;63.54;98243.56;8416876;28;20277;-74
2022/09/19 19:22:44;;;;;;;0.00;0.00;;;;;;;14.33;64.00;98248.16;8416642;28;20231;-74
2022/09/19 19:26:47;;;;;;;0.00;0.00;;;;;;;14.19;63.96;98248.94;8415641;28;20238;-73
2022/09/19 19:30:53;;;;;;;0.00;0.00;;;;;;;14.08;63.47;98253.88;8416819;28;20246;-74
2022/09/19 19:34:56;;;;;;;0.10;0.10;;;;;;;14.08;64.27;98249.50;8416551;28;20373;-74
2022/09/19 19:39:00;;;;;;;0.00;0.00;;;;;;;14.11;63.84;98250.25;8416663;28;20421;-74